createdAt,value
2019-04-28T00:01:17.257Z,16.93
2019-04-28T00:03:46.878Z,19.57
2019-04-28T00:06:16.525Z,15.33
2019-04-28T00:08:46.142Z,18.17
2019-04-28T00:11:15.784Z,19.03
2019-04-28T00:13:45.530Z,17.30
2019-04-28T00:16:15.297Z,19.40
2019-04-28T00:18:45.013Z,18.17
2019-04-28T00:21:36.564Z,18.13
2019-04-28T00:24:29.138Z,17.53
2019-04-28T00:27:01.795Z,18.03
2019-04-28T00:29:38.505Z,21.50
2019-04-28T00:32:02.917Z,19.00
2019-04-28T00:34:32.531Z,20.07
2019-04-28T00:37:11.193Z,19.50
2019-04-28T00:39:41.076Z,18.67
2019-04-28T00:42:11.800Z,19.57
2019-04-28T00:44:43.321Z,17.80
2019-04-28T00:47:12.745Z,20.57
2019-04-28T00:49:48.380Z,20.57
2019-04-28T00:52:22.101Z,21.87
2019-04-28T00:54:52.586Z,21.17
2019-04-28T00:57:22.758Z,20.97
2019-04-28T00:59:58.110Z,20.20
2019-04-28T01:02:42.534Z,19.03
2019-04-28T01:05:13.452Z,22.80
2019-04-28T01:07:43.087Z,21.30
2019-04-28T01:10:14.804Z,21.23
2019-04-28T01:12:46.668Z,18.87
2019-04-28T01:15:24.777Z,18.63
2019-04-28T01:18:22.214Z,20.33
2019-04-28T01:20:51.924Z,19.90
2019-04-28T01:23:21.640Z,17.53
2019-04-28T01:25:51.251Z,22.57
2019-04-28T01:28:21.356Z,20.97
2019-04-28T01:31:19.584Z,22.47
2019-04-28T01:34:10.288Z,21.37
2019-04-28T01:36:40.099Z,19.53
2019-04-28T01:39:10.117Z,21.57
2019-04-28T01:41:39.907Z,28.87
2019-04-28T01:44:10.240Z,21.07
2019-04-28T01:46:40.038Z,21.23
2019-04-28T01:49:09.725Z,21.70
2019-04-28T01:51:41.437Z,19.40
2019-04-28T01:54:11.716Z,21.20
2019-04-28T01:56:41.412Z,19.03
2019-04-28T01:59:11.003Z,20.27
2019-04-28T02:01:40.611Z,22.63
2019-04-28T02:04:10.212Z,21.57
2019-04-28T02:06:39.994Z,20.27
2019-04-28T02:09:10.164Z,24.43
2019-04-28T02:11:41.214Z,22.37
2019-04-28T02:14:10.935Z,20.10
2019-04-28T02:16:40.574Z,20.53
2019-04-28T02:19:10.777Z,22.77
2019-04-28T02:22:05.513Z,20.23
2019-04-28T02:24:35.679Z,18.60
2019-04-28T02:27:05.644Z,19.23
2019-04-28T02:29:35.262Z,22.30
2019-04-28T02:32:40.519Z,19.43
2019-04-28T02:35:10.604Z,21.20
2019-04-28T02:37:40.868Z,19.67
2019-04-28T02:40:11.023Z,19.70
2019-04-28T02:42:41.212Z,19.43
2019-04-28T02:45:11.776Z,22.40
2019-04-28T02:47:42.350Z,20.43
2019-04-28T02:50:27.188Z,20.13
2019-04-28T02:53:04.575Z,20.30
2019-04-28T02:55:34.276Z,20.37
2019-04-28T02:58:03.923Z,20.83
2019-04-28T03:00:33.539Z,20.37
2019-04-28T03:03:03.185Z,21.17
2019-04-28T03:05:33.387Z,20.73
2019-04-28T03:08:03.437Z,20.10
2019-04-28T03:10:33.116Z,21.93
2019-04-28T03:13:02.749Z,20.20
2019-04-28T03:15:32.426Z,23.93
2019-04-28T03:18:02.216Z,23.03
2019-04-28T03:20:32.395Z,20.13
2019-04-28T03:23:02.008Z,20.10
2019-04-28T03:26:05.755Z,24.00
2019-04-28T03:28:41.419Z,22.47
2019-04-28T03:31:55.250Z,22.23
2019-04-28T03:34:03.440Z,24.40
2019-04-28T03:36:33.151Z,18.23
2019-04-28T03:39:01.840Z,24.70
2019-04-28T03:41:31.435Z,21.13
2019-04-28T03:44:01.141Z,27.33
2019-04-28T03:46:32.398Z,23.87
2019-04-28T03:49:01.999Z,20.23
2019-04-28T03:51:31.645Z,21.73
2019-04-28T03:54:02.973Z,19.60
2019-04-28T03:56:32.492Z,24.03
2019-04-28T03:59:02.115Z,20.57
2019-04-28T04:01:31.723Z,21.53
2019-04-28T04:04:03.629Z,17.97
2019-04-28T04:06:32.614Z,19.30
2019-04-28T04:09:02.227Z,17.93
2019-04-28T04:11:41.103Z,18.37
2019-04-28T04:14:25.999Z,20.53
2019-04-28T04:17:12.079Z,16.00
2019-04-28T04:19:41.698Z,20.73
2019-04-28T04:22:11.396Z,17.73
2019-04-28T04:24:41.011Z,16.93
2019-04-28T04:27:10.830Z,18.03
2019-04-28T04:29:43.322Z,18.40
2019-04-28T04:32:22.946Z,16.90
2019-04-28T04:34:42.970Z,17.50
2019-04-28T04:37:12.760Z,16.87
2019-04-28T04:39:42.488Z,18.27
2019-04-28T04:42:12.099Z,18.70
2019-04-28T04:44:41.734Z,19.87
2019-04-28T04:47:11.338Z,16.30
2019-04-28T04:49:40.945Z,17.67
2019-04-28T04:52:10.603Z,16.67
2019-04-28T04:54:40.305Z,18.17
2019-04-28T04:57:11.054Z,16.10
2019-04-28T04:59:40.802Z,17.13
2019-04-28T05:02:40.976Z,17.57
2019-04-28T05:05:22.940Z,17.33
2019-04-28T05:07:52.566Z,18.40
2019-04-28T05:10:22.193Z,17.03
2019-04-28T05:12:51.930Z,16.70
2019-04-28T05:15:21.565Z,18.87
2019-04-28T05:17:51.189Z,18.37
2019-04-28T05:20:20.815Z,16.33
2019-04-28T05:22:56.971Z,16.63
2019-04-28T05:25:34.717Z,16.97
2019-04-28T05:28:04.353Z,16.17
2019-04-28T05:30:34.948Z,13.57
2019-04-28T05:33:05.252Z,16.03
2019-04-28T05:35:35.726Z,14.47
2019-04-28T05:38:05.469Z,15.00
2019-04-28T05:40:35.105Z,14.13
2019-04-28T05:43:04.728Z,12.70
2019-04-28T05:45:34.360Z,16.77
2019-04-28T05:48:03.983Z,17.83
2019-04-28T05:50:50.775Z,16.60
2019-04-28T06:00:36.599Z,14.27
2019-04-28T06:03:09.595Z,12.10
2019-04-28T06:05:39.501Z,12.77
2019-04-28T06:08:31.095Z,11.73
2019-04-28T06:11:02.310Z,11.93
2019-04-28T06:13:31.921Z,11.93
2019-04-28T06:16:01.557Z,13.40
2019-04-28T06:18:31.177Z,15.53
2019-04-28T06:21:00.799Z,12.63
2019-04-28T06:23:30.461Z,11.37
2019-04-28T06:26:00.105Z,10.77
2019-04-28T06:28:29.718Z,11.33
2019-04-28T06:30:59.329Z,17.27
2019-04-28T06:33:28.957Z,11.47
2019-04-28T06:35:58.623Z,13.27
2019-04-28T06:38:28.249Z,16.40
2019-04-28T06:40:57.926Z,11.37
2019-04-28T06:43:27.536Z,16.13
2019-04-28T06:45:57.190Z,13.37
2019-04-28T06:48:26.807Z,13.47
2019-04-28T06:50:56.445Z,11.17
2019-04-28T06:53:26.078Z,13.47
2019-04-28T06:55:55.738Z,13.03
2019-04-28T06:58:25.354Z,18.63
2019-04-28T07:00:55.003Z,10.87
2019-04-28T07:03:24.583Z,13.97
2019-04-28T07:05:54.223Z,15.07
2019-04-28T07:08:23.827Z,13.90
2019-04-28T07:10:53.489Z,13.23
2019-04-28T07:13:23.085Z,14.10
2019-04-28T07:15:52.699Z,12.97
2019-04-28T07:18:22.330Z,15.63
2019-04-28T07:21:12.413Z,11.50
2019-04-28T07:23:42.008Z,12.77
2019-04-28T07:26:11.712Z,10.70
2019-04-28T07:28:41.307Z,12.27
2019-04-28T07:31:11.017Z,10.27
2019-04-28T07:33:40.657Z,9.50
2019-04-28T07:36:10.259Z,10.40
2019-04-28T07:38:39.993Z,16.70
2019-04-28T07:41:09.627Z,11.07
2019-04-28T07:43:39.235Z,11.03
2019-04-28T07:46:08.864Z,8.80
2019-04-28T07:48:38.499Z,12.60
2019-04-28T07:51:08.121Z,10.43
2019-04-28T07:53:43.119Z,13.37
2019-04-28T07:56:12.742Z,8.37
2019-04-28T07:58:42.383Z,16.80
2019-04-28T08:01:13.015Z,13.23
2019-04-28T08:03:49.314Z,8.27
2019-04-28T08:06:13.988Z,10.03
2019-04-28T08:08:43.660Z,7.50
2019-04-28T08:11:13.243Z,8.73
2019-04-28T08:13:42.893Z,8.93
2019-04-28T08:16:12.487Z,13.83
2019-04-28T08:18:42.134Z,10.10
2019-04-28T08:21:12.015Z,9.83
2019-04-28T08:23:47.237Z,8.93
2019-04-28T08:26:13.698Z,10.37
2019-04-28T08:28:43.839Z,10.93
2019-04-28T08:31:15.307Z,12.47
2019-04-28T08:33:48.617Z,8.27
2019-04-28T08:36:18.375Z,11.00
2019-04-28T08:38:47.998Z,8.03
2019-04-28T08:41:17.782Z,8.63
2019-04-28T08:43:47.830Z,9.70
2019-04-28T08:46:17.840Z,10.73
2019-04-28T08:48:47.439Z,10.50
2019-04-28T08:51:17.270Z,11.03
2019-04-28T08:53:47.153Z,9.60
2019-04-28T08:56:17.389Z,10.60
2019-04-28T08:58:47.019Z,12.70
2019-04-28T09:01:17.034Z,11.37
2019-04-28T09:03:47.023Z,9.77
2019-04-28T09:06:17.067Z,8.47
2019-04-28T09:08:47.189Z,10.87
2019-04-28T09:11:17.195Z,13.07
2019-04-28T09:13:47.016Z,7.33
2019-04-28T09:16:16.811Z,9.67
2019-04-28T09:18:46.714Z,9.53
2019-04-28T09:21:16.366Z,7.70
2019-04-28T09:23:46.304Z,8.67
2019-04-28T09:26:17.372Z,11.10
2019-04-28T09:28:47.293Z,7.80
2019-04-28T09:31:17.372Z,7.67
2019-04-28T09:33:47.292Z,8.03
2019-04-28T09:36:16.953Z,12.20
2019-04-28T09:38:47.185Z,11.97
2019-04-28T09:41:17.209Z,7.90
2019-04-28T09:43:58.179Z,9.13
2019-04-28T09:46:30.913Z,8.97
2019-04-28T09:49:03.668Z,10.00
2019-04-28T09:51:33.607Z,9.63
2019-04-28T09:54:03.240Z,8.77
2019-04-28T09:56:32.847Z,10.83
2019-04-28T09:59:02.673Z,6.93
2019-04-28T10:01:32.607Z,10.87
2019-04-28T10:04:02.214Z,10.97
2019-04-28T10:06:32.234Z,6.63
2019-04-28T10:09:02.278Z,8.80
2019-04-28T10:11:32.263Z,8.73
2019-04-28T10:14:02.538Z,10.07
2019-04-28T10:16:32.151Z,10.70
2019-04-28T10:19:02.135Z,9.50
2019-04-28T10:21:32.011Z,8.63
2019-04-28T10:24:04.997Z,10.97
2019-04-28T10:26:35.079Z,5.37
2019-04-28T10:29:04.978Z,8.27
2019-04-28T10:31:35.060Z,8.53
2019-04-28T10:34:05.670Z,9.63
2019-04-28T10:36:36.480Z,10.33
2019-04-28T10:39:23.115Z,10.03
2019-04-28T10:41:53.261Z,6.30
2019-04-28T10:44:24.186Z,7.70
2019-04-28T10:46:54.210Z,8.47
2019-04-28T10:49:23.922Z,8.87
2019-04-28T10:51:59.367Z,10.17
2019-04-28T10:54:28.645Z,8.17
2019-04-28T10:56:58.264Z,8.97
2019-04-28T10:59:28.414Z,9.60
2019-04-28T11:01:58.307Z,9.70
2019-04-28T11:05:09.135Z,10.00
2019-04-28T11:07:40.582Z,8.87
2019-04-28T11:10:16.221Z,9.53
2019-04-28T11:12:46.501Z,7.63
2019-04-28T11:15:21.041Z,10.77
2019-04-28T11:17:50.933Z,9.40
2019-04-28T11:20:21.053Z,9.80
2019-04-28T11:22:50.697Z,10.43
2019-04-28T11:25:20.909Z,7.87
2019-04-28T11:27:50.883Z,10.97
2019-04-28T11:30:21.503Z,7.43
2019-04-28T11:33:08.542Z,5.63
2019-04-28T11:35:38.783Z,9.60
2019-04-28T11:38:08.607Z,10.90
2019-04-28T11:40:38.749Z,12.10
2019-04-28T11:43:08.821Z,10.53
2019-04-28T11:45:38.576Z,10.47
2019-04-28T11:48:08.479Z,7.03
2019-04-28T11:50:38.332Z,9.97
2019-04-28T11:53:08.193Z,8.30
2019-04-28T11:55:37.903Z,9.40
2019-04-28T11:58:07.730Z,8.57
2019-04-28T12:00:37.570Z,7.13
2019-04-28T12:03:07.545Z,11.87
2019-04-28T12:05:43.515Z,6.53
2019-04-28T12:08:13.140Z,9.73
2019-04-28T12:10:51.139Z,7.47
2019-04-28T12:13:40.028Z,12.37
2019-04-28T12:16:28.545Z,8.23
2019-04-28T12:19:05.977Z,9.57
2019-04-28T12:21:35.889Z,8.73
2019-04-28T12:24:05.950Z,9.27
2019-04-28T12:26:39.353Z,9.63
2019-04-28T12:29:08.982Z,13.73
2019-04-28T12:31:38.614Z,21.00
2019-04-28T12:34:08.735Z,9.23
2019-04-28T12:36:38.454Z,10.43
2019-04-28T12:39:09.539Z,8.17
2019-04-28T12:41:39.532Z,8.80
2019-04-28T12:44:09.157Z,10.97
2019-04-28T12:46:38.781Z,5.80
2019-04-28T12:49:15.360Z,8.27
2019-04-28T12:51:45.179Z,13.53
2019-04-28T12:54:17.028Z,7.23
2019-04-28T12:56:46.802Z,7.47
2019-04-28T12:59:21.759Z,12.80
2019-04-28T13:02:22.671Z,15.67
2019-04-28T13:04:56.037Z,11.60
2019-04-28T13:07:25.663Z,9.50
2019-04-28T13:09:55.298Z,8.17
2019-04-28T13:12:25.227Z,10.17
2019-04-28T13:14:54.940Z,8.60
2019-04-28T13:17:25.857Z,10.60
2019-04-28T13:19:55.879Z,5.67
2019-04-28T13:22:25.510Z,8.10
2019-04-28T13:24:55.134Z,14.70
2019-04-28T13:27:24.766Z,8.40
2019-04-28T13:29:54.352Z,12.17
2019-04-28T13:32:23.990Z,10.27
2019-04-28T13:34:53.612Z,10.37
2019-04-28T13:37:23.232Z,8.17
2019-04-28T13:39:57.035Z,13.13
2019-04-28T13:42:26.654Z,9.27
2019-04-28T13:45:18.064Z,8.97
2019-04-28T13:47:48.299Z,9.43
2019-04-28T13:50:30.089Z,9.03
2019-04-28T13:52:59.698Z,7.60
2019-04-28T13:56:06.170Z,8.47
2019-04-28T13:58:41.258Z,7.23
2019-04-28T14:01:36.141Z,11.23
2019-04-28T14:04:24.680Z,8.83
2019-04-28T14:07:07.128Z,10.10
2019-04-28T14:09:38.486Z,9.17
2019-04-28T14:12:08.334Z,6.90
2019-04-28T14:14:37.995Z,5.07
2019-04-28T14:17:07.601Z,5.33
2019-04-28T14:19:37.309Z,14.97
2019-04-28T14:22:07.029Z,5.87
2019-04-28T14:24:36.610Z,8.37
2019-04-28T14:27:06.431Z,10.93
2019-04-28T14:29:36.108Z,8.60
2019-04-28T14:32:05.846Z,8.30
2019-04-28T14:34:35.531Z,5.47
2019-04-28T14:37:05.104Z,10.93
2019-04-28T14:39:34.747Z,8.40
2019-04-28T14:42:04.394Z,10.17
2019-04-28T14:44:34.008Z,7.63
2019-04-28T14:47:03.751Z,4.97
2019-04-28T14:49:33.411Z,6.73
2019-04-28T14:52:03.022Z,6.17
2019-04-28T14:54:32.660Z,7.87
2019-04-28T14:57:02.308Z,3.90
2019-04-28T14:59:31.929Z,4.73
2019-04-28T15:02:20.492Z,5.03
2019-04-28T15:05:08.973Z,5.33
2019-04-28T15:07:56.128Z,6.20
2019-04-28T15:10:32.227Z,4.03
2019-04-28T15:13:01.942Z,3.97
2019-04-28T15:15:31.651Z,5.07
2019-04-28T15:18:01.369Z,3.50
2019-04-28T15:20:31.000Z,5.23
2019-04-28T15:23:00.629Z,7.53
2019-04-28T15:25:30.249Z,8.23
2019-04-28T15:27:59.879Z,3.30
2019-04-28T15:30:29.516Z,5.03
2019-04-28T15:32:59.125Z,4.53
2019-04-28T15:35:28.795Z,5.60
2019-04-28T15:37:58.389Z,6.40
2019-04-28T15:40:28.009Z,5.17
2019-04-28T15:42:57.653Z,4.77
2019-04-28T15:45:27.274Z,3.80
2019-04-28T15:47:56.894Z,3.67
2019-04-28T15:50:26.535Z,3.63
2019-04-28T15:52:56.149Z,2.67
2019-04-28T15:55:32.611Z,4.70
2019-04-28T15:58:21.163Z,7.83
2019-04-28T16:00:50.872Z,2.30
2019-04-28T16:03:20.540Z,3.73
2019-04-28T16:05:50.204Z,2.27
2019-04-28T16:08:19.865Z,7.87
2019-04-28T16:10:49.510Z,4.27
2019-04-28T16:13:19.170Z,3.90
2019-04-28T16:15:48.856Z,9.17
2019-04-28T16:18:18.504Z,6.30
2019-04-28T16:20:48.135Z,5.43
2019-04-28T16:23:17.759Z,7.47
2019-04-28T16:25:47.382Z,4.50
2019-04-28T16:28:17.098Z,1.70
2019-04-28T16:30:46.697Z,3.73
2019-04-28T16:33:16.461Z,3.50
2019-04-28T16:35:46.138Z,4.63
2019-04-28T16:38:15.816Z,4.07
2019-04-28T16:40:58.609Z,3.00
2019-04-28T16:43:33.299Z,2.40
2019-04-28T16:46:02.926Z,3.03
2019-04-28T16:48:32.542Z,3.43
2019-04-28T16:51:02.168Z,3.17
2019-04-28T16:53:31.802Z,3.00
2019-04-28T16:56:07.333Z,4.10
2019-04-28T16:58:58.657Z,3.67
2019-04-28T17:01:55.950Z,4.13
2019-04-28T17:04:25.675Z,3.17
2019-04-28T17:06:55.358Z,6.93
2019-04-28T17:09:25.288Z,6.00
2019-04-28T17:11:54.971Z,2.90
2019-04-28T17:14:24.576Z,2.97
2019-04-28T17:16:54.197Z,4.40
2019-04-28T17:19:23.871Z,3.50
2019-04-28T17:21:53.535Z,4.00
2019-04-28T17:24:23.314Z,2.33
2019-04-28T17:26:52.960Z,5.20
2019-04-28T17:29:22.600Z,4.87
2019-04-28T17:31:52.305Z,5.97
2019-04-28T17:34:21.979Z,5.87
2019-04-28T17:36:51.630Z,2.67
2019-04-28T17:39:22.424Z,4.17
2019-04-28T17:41:52.108Z,4.47
2019-04-28T17:44:21.764Z,3.70
2019-04-28T17:46:51.933Z,6.53
2019-04-28T17:49:28.554Z,5.70
2019-04-28T17:51:58.226Z,5.07
2019-04-28T17:54:27.886Z,4.50
2019-04-28T17:56:57.537Z,3.80
2019-04-28T17:59:27.207Z,5.43
2019-04-28T18:02:33.914Z,5.20
2019-04-28T18:05:22.546Z,2.87
2019-04-28T18:07:56.675Z,3.27
2019-04-28T18:10:27.920Z,6.17
2019-04-28T18:13:00.911Z,4.33
2019-04-28T18:15:50.813Z,6.23
2019-04-28T18:18:39.356Z,6.93
2019-04-28T18:21:09.110Z,4.47
2019-04-28T18:23:38.779Z,3.57
2019-04-28T18:26:08.427Z,4.63
2019-04-28T18:28:38.047Z,3.10
2019-04-28T18:31:24.928Z,4.67
2019-04-28T18:34:11.838Z,2.80
2019-04-28T18:36:50.865Z,8.80
2019-04-28T18:39:42.303Z,2.53
2019-04-28T18:42:19.864Z,4.47
2019-04-28T18:44:49.521Z,3.63
2019-04-28T18:47:19.186Z,3.37
2019-04-28T18:49:48.824Z,5.80
2019-04-28T18:52:18.467Z,2.93
2019-04-28T18:54:48.119Z,4.77
2019-04-28T18:57:17.748Z,3.17
2019-04-28T18:59:47.401Z,7.67
2019-04-28T19:02:25.500Z,5.13
2019-04-28T19:04:55.179Z,5.90
2019-04-28T19:07:42.178Z,7.87
2019-04-28T19:10:21.211Z,3.57
2019-04-28T19:13:13.520Z,3.73
2019-04-28T19:16:00.553Z,5.87
2019-04-28T19:18:34.660Z,4.57
2019-04-28T19:21:04.677Z,3.03
2019-04-28T19:23:34.317Z,2.83
2019-04-28T19:26:04.128Z,3.70
2019-04-28T19:28:33.742Z,3.83
2019-04-28T19:31:03.373Z,3.70
2019-04-28T19:33:33.031Z,3.63
2019-04-28T19:36:02.657Z,3.43
2019-04-28T19:38:32.297Z,3.20
2019-04-28T19:41:01.910Z,4.83
2019-04-28T19:43:31.544Z,6.60
2019-04-28T19:46:02.861Z,4.73
2019-04-28T19:48:32.525Z,5.80
2019-04-28T19:51:02.148Z,2.97
2019-04-28T19:53:32.038Z,4.50
2019-04-28T19:56:10.660Z,4.10
2019-04-28T19:58:47.778Z,4.27
2019-04-28T20:01:28.469Z,3.77
2019-04-28T20:03:58.191Z,4.27
2019-04-28T20:06:27.803Z,4.07
2019-04-28T20:08:57.451Z,4.40
2019-04-28T20:11:27.064Z,4.43
2019-04-28T20:13:56.739Z,3.60
2019-04-28T20:16:26.377Z,4.27
2019-04-28T20:18:55.999Z,7.50
2019-04-28T20:21:25.634Z,4.70
2019-04-28T20:23:55.263Z,5.13
2019-04-28T20:26:24.910Z,4.97
2019-04-28T20:28:54.524Z,2.97
2019-04-28T20:31:24.163Z,5.43
2019-04-28T20:33:53.773Z,5.63
2019-04-28T20:36:42.286Z,2.43
2019-04-28T20:39:16.754Z,5.10
2019-04-28T20:41:46.356Z,4.23
2019-04-28T20:44:15.955Z,4.37
2019-04-28T20:46:45.592Z,4.83
2019-04-28T20:49:15.237Z,4.77
2019-04-28T20:51:44.838Z,6.40
2019-04-28T20:54:14.451Z,4.97
2019-04-28T20:56:44.066Z,5.63
2019-04-28T20:59:13.680Z,6.13
2019-04-28T21:01:43.384Z,4.23
2019-04-28T21:04:13.038Z,5.73
2019-04-28T21:06:42.717Z,3.93
2019-04-28T21:09:12.378Z,3.23
2019-04-28T21:11:42.080Z,6.03
2019-04-28T21:14:11.720Z,5.63
2019-04-28T21:16:41.349Z,6.27
2019-04-28T21:19:11.023Z,5.73
2019-04-28T21:21:40.722Z,5.57
2019-04-28T21:24:10.396Z,9.77
2019-04-28T21:26:40.082Z,3.87
2019-04-28T21:29:09.721Z,6.83
2019-04-28T21:31:39.383Z,4.50
2019-04-28T21:34:09.033Z,3.33
2019-04-28T21:36:38.700Z,4.77
2019-04-28T21:39:09.489Z,3.40
2019-04-28T21:41:39.126Z,5.20
2019-04-28T21:44:30.517Z,7.20
2019-04-28T21:47:05.201Z,6.13
2019-04-28T21:49:37.623Z,5.50
2019-04-28T21:52:07.281Z,5.93
2019-04-28T21:54:36.938Z,6.40
2019-04-28T21:57:06.577Z,6.87
2019-04-28T21:59:36.240Z,4.03
2019-04-28T22:02:05.918Z,8.43
2019-04-28T22:04:35.546Z,5.67
2019-04-28T22:07:05.272Z,4.70
2019-04-28T22:09:34.921Z,6.17
2019-04-28T22:12:04.649Z,7.80
2019-04-28T22:14:34.337Z,4.00
2019-04-28T22:17:03.977Z,6.07
2019-04-28T22:19:33.620Z,5.23
2019-04-28T22:22:03.327Z,2.90
2019-04-28T22:24:58.226Z,4.37
2019-04-28T22:27:31.611Z,3.60
2019-04-28T22:30:01.258Z,3.80
2019-04-28T22:32:30.902Z,11.67
2019-04-28T22:35:00.586Z,2.40
2019-04-28T22:37:30.278Z,5.10
2019-04-28T22:39:59.913Z,5.57
2019-04-28T22:42:29.946Z,3.77
2019-04-28T22:44:59.616Z,4.00
2019-04-28T22:47:29.317Z,3.87
2019-04-28T22:49:58.933Z,2.80
2019-04-28T22:52:28.557Z,4.33
2019-04-28T22:55:17.101Z,6.07
2019-04-28T22:58:02.380Z,4.30
2019-04-28T23:01:03.064Z,4.23
2019-04-28T23:03:41.093Z,4.67
2019-04-28T23:06:10.838Z,5.77
2019-04-28T23:08:40.601Z,3.37
2019-04-28T23:11:10.237Z,3.83
2019-04-28T23:13:39.878Z,4.13
2019-04-28T23:16:09.527Z,4.50
2019-04-28T23:18:39.171Z,4.87
2019-04-28T23:21:19.647Z,3.50
2019-04-28T23:23:49.286Z,4.53
2019-04-28T23:26:18.932Z,4.17
2019-04-28T23:28:48.574Z,3.77
2019-04-28T23:31:18.330Z,3.20
2019-04-28T23:33:47.999Z,4.37
2019-04-28T23:36:17.606Z,7.97
2019-04-28T23:38:47.213Z,6.33
2019-04-28T23:41:34.057Z,7.03
2019-04-28T23:44:03.697Z,4.23
2019-04-28T23:46:55.292Z,3.83
2019-04-28T23:49:25.458Z,4.53
2019-04-28T23:52:04.273Z,4.27
2019-04-28T23:54:34.352Z,3.47
2019-04-28T23:57:07.161Z,6.50
2019-04-28T23:59:35.297Z,3.63
